createdAt,value
2018-04-15T00:01:37.573Z,46.50
2018-04-15T00:04:05.062Z,46.50
2018-04-15T00:06:33.297Z,46.50
2018-04-15T00:09:00.781Z,46.50
2018-04-15T00:11:29.046Z,46.10
2018-04-15T00:13:56.528Z,46.40
2018-04-15T00:16:24.757Z,46.40
2018-04-15T00:18:52.237Z,46.40
2018-04-15T00:21:19.722Z,46.50
2018-04-15T00:23:48.004Z,46.40
2018-04-15T00:26:16.236Z,46.50
2018-04-15T00:28:43.882Z,46.40
2018-04-15T00:31:11.372Z,46.40
2018-04-15T00:33:38.827Z,46.40
2018-04-15T00:36:07.081Z,46.40
2018-04-15T00:38:35.485Z,46.40
2018-04-15T00:41:03.728Z,46.40
2018-04-15T00:43:31.194Z,46.40
2018-04-15T00:45:59.411Z,46.40
2018-04-15T00:48:27.648Z,46.40
2018-04-15T00:50:55.158Z,46.40
2018-04-15T00:53:22.656Z,46.40
2018-04-15T00:55:50.260Z,46.40
2018-04-15T00:58:18.491Z,46.40
2018-04-15T01:00:45.977Z,46.40
2018-04-15T01:03:14.983Z,46.50
2018-04-15T01:05:43.234Z,46.40
2018-04-15T01:08:10.766Z,46.40
2018-04-15T01:10:38.252Z,46.40
2018-04-15T01:13:05.713Z,46.40
2018-04-15T01:15:34.700Z,46.50
2018-04-15T01:18:02.262Z,46.40
2018-04-15T01:20:29.942Z,46.40
2018-04-15T01:22:57.433Z,46.40
2018-04-15T01:25:25.198Z,46.40
2018-04-15T01:27:53.144Z,46.50
2018-04-15T01:30:21.394Z,46.50
2018-04-15T01:32:50.376Z,46.50
2018-04-15T01:35:18.019Z,47.10
2018-04-15T01:37:45.477Z,46.40
2018-04-15T01:40:12.941Z,46.50
2018-04-15T01:42:40.901Z,46.40
2018-04-15T01:45:08.402Z,46.40
2018-04-15T01:47:36.647Z,45.90
2018-04-15T01:50:04.309Z,46.40
2018-04-15T01:52:31.780Z,46.30
2018-04-15T01:55:00.029Z,46.30
2018-04-15T01:57:27.498Z,46.40
2018-04-15T01:59:54.966Z,46.30
2018-04-15T02:02:22.479Z,46.40
2018-04-15T02:04:50.006Z,46.40
2018-04-15T02:07:18.261Z,46.40
2018-04-15T02:09:47.239Z,46.40
2018-04-15T02:12:14.732Z,46.30
2018-04-15T02:14:42.984Z,46.60
2018-04-15T02:17:10.448Z,46.40
2018-04-15T02:19:38.683Z,47.10
2018-04-15T02:22:06.167Z,46.40
2018-04-15T02:24:33.643Z,46.30
2018-04-15T02:27:01.937Z,46.40
2018-04-15T02:29:30.904Z,46.30
2018-04-15T02:31:59.170Z,46.30
2018-04-15T02:34:26.649Z,46.40
2018-04-15T02:36:54.895Z,46.40
2018-04-15T02:39:22.929Z,46.30
2018-04-15T02:41:50.464Z,46.30
2018-04-15T02:44:19.313Z,46.30
2018-04-15T02:46:46.786Z,46.30
2018-04-15T02:49:15.065Z,46.40
2018-04-15T02:51:44.040Z,46.40
2018-04-15T02:54:11.530Z,46.30
2018-04-15T02:56:40.721Z,46.40
2018-04-15T02:59:08.224Z,46.30
2018-04-15T03:01:35.889Z,46.40
2018-04-15T03:04:03.419Z,46.40
2018-04-15T03:06:31.662Z,46.40
2018-04-15T03:08:59.903Z,46.40
2018-04-15T03:11:27.387Z,46.40
2018-04-15T03:13:55.836Z,46.40
2018-04-15T03:16:23.356Z,46.40
2018-04-15T03:18:51.613Z,46.40
2018-04-15T03:21:20.613Z,46.40
2018-04-15T03:23:48.090Z,46.40
2018-04-15T03:26:16.316Z,46.40
2018-04-15T03:28:44.534Z,46.40
2018-04-15T03:31:13.697Z,46.40
2018-04-15T03:33:41.342Z,46.30
2018-04-15T03:36:08.907Z,46.40
2018-04-15T03:38:36.447Z,46.40
2018-04-15T03:41:04.004Z,46.40
2018-04-15T03:43:31.473Z,46.30
2018-04-15T03:45:58.937Z,46.40
2018-04-15T03:48:26.519Z,46.40
2018-04-15T03:50:54.702Z,46.40
2018-04-15T03:53:22.939Z,46.50
2018-04-15T03:55:50.480Z,46.30
2018-04-15T03:58:18.086Z,46.30
2018-04-15T04:00:46.326Z,46.40
2018-04-15T04:03:13.803Z,46.40
2018-04-15T04:05:41.283Z,46.30
2018-04-15T04:08:08.779Z,46.30
2018-04-15T04:10:36.251Z,46.40
2018-04-15T04:13:03.725Z,46.40
2018-04-15T04:15:31.194Z,46.40
2018-04-15T04:18:10.723Z,46.40
2018-04-15T04:20:50.129Z,46.40
2018-04-15T04:26:20.354Z,46.20
2018-04-15T04:28:47.861Z,46.40
2018-04-15T04:31:15.312Z,46.40
2018-04-15T04:33:42.841Z,46.50
2018-04-15T04:36:10.470Z,46.50
2018-04-15T04:38:37.956Z,46.50
2018-04-15T04:41:06.268Z,46.50
2018-04-15T04:43:33.719Z,46.50
2018-04-15T04:46:01.193Z,46.50
2018-04-15T04:48:28.685Z,46.50
2018-04-15T04:50:57.494Z,46.50
2018-04-15T04:53:24.965Z,46.50
2018-04-15T04:55:52.427Z,46.50
2018-04-15T04:58:19.924Z,46.50
2018-04-15T05:00:47.413Z,46.50
2018-04-15T05:03:14.878Z,46.50
2018-04-15T05:05:43.096Z,46.50
2018-04-15T05:08:10.573Z,46.50
2018-04-15T05:10:40.300Z,46.50
2018-04-15T05:13:08.633Z,46.50
2018-04-15T05:15:36.104Z,46.50
2018-04-15T05:18:03.606Z,46.50
2018-04-15T05:20:31.834Z,46.50
2018-04-15T05:23:00.279Z,46.50
2018-04-15T05:25:27.769Z,46.50
2018-04-15T05:27:55.301Z,46.50
2018-04-15T05:30:22.814Z,46.50
2018-04-15T05:32:50.287Z,46.50
2018-04-15T05:35:18.519Z,46.50
2018-04-15T05:37:46.012Z,46.50
2018-04-15T05:40:14.739Z,46.50
2018-04-15T05:42:42.210Z,46.50
2018-04-15T05:45:09.676Z,46.50
2018-04-15T05:47:37.214Z,46.50
2018-04-15T05:50:04.626Z,46.40
2018-04-15T05:52:32.874Z,46.50
2018-04-15T05:55:00.367Z,46.50
2018-04-15T05:57:28.595Z,46.50
2018-04-15T05:59:56.096Z,46.50
2018-04-15T06:02:24.341Z,46.50
2018-04-15T06:04:51.812Z,46.50
2018-04-15T06:07:19.293Z,46.50
2018-04-15T06:09:46.775Z,46.50
2018-04-15T06:12:14.235Z,46.50
2018-04-15T06:14:41.708Z,46.50
2018-04-15T06:17:09.212Z,46.50
2018-04-15T06:19:37.995Z,46.50
2018-04-15T06:22:06.243Z,46.50
2018-04-15T06:24:33.755Z,46.50
2018-04-15T06:27:02.027Z,46.50
2018-04-15T06:29:29.537Z,46.50
2018-04-15T06:31:56.995Z,46.50
2018-04-15T06:34:25.998Z,46.50
2018-04-15T06:36:54.287Z,46.50
2018-04-15T06:39:21.923Z,46.50
2018-04-15T06:41:49.389Z,46.50
2018-04-15T06:44:16.993Z,46.50
2018-04-15T06:46:44.463Z,46.40
2018-04-15T06:49:11.988Z,46.40
2018-04-15T06:51:39.415Z,46.40
2018-04-15T06:54:06.908Z,46.40
2018-04-15T06:56:35.152Z,46.40
2018-04-15T06:59:04.164Z,46.40
2018-04-15T07:01:31.642Z,46.40
2018-04-15T07:03:59.131Z,46.40
2018-04-15T07:06:26.621Z,46.40
2018-04-15T07:08:55.587Z,46.30
2018-04-15T07:11:23.050Z,46.30
2018-04-15T07:13:51.272Z,46.20
2018-04-15T07:16:19.491Z,46.20
2018-04-15T07:18:47.412Z,46.10
2018-04-15T07:21:16.506Z,46.20
2018-04-15T07:23:44.750Z,46.10
2018-04-15T07:26:12.914Z,46.10
2018-04-15T07:28:40.392Z,46.00
2018-04-15T07:31:08.632Z,46.00
2018-04-15T07:33:36.128Z,46.00
2018-04-15T07:36:04.370Z,45.30
2018-04-15T07:38:31.838Z,45.90
2018-04-15T07:40:59.339Z,45.90
2018-04-15T07:43:27.654Z,45.80
2018-04-15T07:45:55.143Z,45.80
2018-04-15T07:48:23.843Z,45.80
2018-04-15T07:50:52.211Z,45.80
2018-04-15T07:53:21.209Z,45.80
2018-04-15T07:55:49.432Z,45.70
2018-04-15T07:58:16.916Z,45.70
2018-04-15T08:00:44.424Z,45.70
2018-04-15T08:03:12.690Z,45.70
2018-04-15T08:05:40.906Z,45.60
2018-04-15T08:08:08.392Z,45.60
2018-04-15T08:10:36.444Z,45.50
2018-04-15T08:13:03.910Z,45.50
2018-04-15T08:15:31.390Z,45.40
2018-04-15T08:17:59.655Z,45.20
2018-04-15T08:20:27.140Z,45.20
2018-04-15T08:22:56.205Z,45.10
2018-04-15T08:25:23.682Z,45.00
2018-04-15T08:27:51.183Z,44.90
2018-04-15T08:30:18.664Z,44.80
2018-04-15T08:32:46.141Z,44.80
2018-04-15T08:35:14.404Z,44.70
2018-04-15T08:37:41.907Z,44.70
2018-04-15T08:40:10.143Z,44.60
2018-04-15T08:42:37.624Z,44.60
2018-04-15T08:45:05.877Z,44.60
2018-04-15T08:47:33.563Z,44.60
2018-04-15T08:50:01.818Z,44.50
2018-04-15T08:52:29.316Z,44.50
2018-04-15T08:54:56.815Z,44.50
2018-04-15T08:57:24.299Z,44.50
2018-04-15T08:59:52.749Z,44.40
2018-04-15T09:02:20.226Z,44.40
2018-04-15T09:04:47.739Z,44.40
2018-04-15T09:07:15.238Z,44.40
2018-04-15T09:09:42.765Z,44.40
2018-04-15T09:12:10.202Z,44.40
2018-04-15T09:14:37.685Z,44.40
2018-04-15T09:17:05.176Z,44.30
2018-04-15T09:19:33.540Z,44.30
2018-04-15T09:22:01.036Z,44.30
2018-04-15T09:24:29.279Z,44.40
2018-04-15T09:26:56.758Z,44.40
2018-04-15T09:29:25.870Z,44.40
2018-04-15T09:31:54.115Z,44.50
2018-04-15T09:34:21.583Z,44.50
2018-04-15T09:36:49.084Z,44.40
2018-04-15T09:39:16.559Z,44.50
2018-04-15T09:41:44.150Z,44.40
2018-04-15T09:44:13.134Z,44.50
2018-04-15T09:46:41.370Z,44.50
2018-04-15T09:49:08.843Z,44.50
2018-04-15T09:51:36.327Z,44.50
2018-04-15T09:54:04.859Z,44.50
2018-04-15T09:56:32.334Z,44.50
2018-04-15T09:58:59.877Z,44.50
2018-04-15T10:01:27.379Z,44.50
2018-04-15T10:03:54.862Z,44.50
2018-04-15T10:06:23.261Z,44.30
2018-04-15T10:08:50.781Z,44.20
2018-04-15T10:11:19.750Z,44.30
2018-04-15T10:13:47.256Z,44.90
2018-04-15T10:16:16.000Z,44.10
2018-04-15T10:18:43.465Z,44.10
2018-04-15T10:21:10.991Z,44.20
2018-04-15T10:23:38.745Z,44.10
2018-04-15T10:26:06.235Z,44.10
2018-04-15T10:28:33.739Z,44.10
2018-04-15T10:31:01.992Z,44.20
2018-04-15T10:33:30.991Z,44.20
2018-04-15T10:35:58.486Z,44.20
2018-04-15T10:38:25.976Z,44.20
2018-04-15T10:40:53.468Z,44.20
2018-04-15T10:43:21.717Z,44.30
2018-04-15T10:45:49.194Z,44.30
2018-04-15T10:48:16.700Z,44.30
2018-04-15T10:50:44.161Z,44.40
2018-04-15T10:53:11.658Z,44.40
2018-04-15T10:55:39.925Z,44.30
2018-04-15T10:58:07.395Z,44.40
2018-04-15T11:00:36.401Z,44.20
2018-04-15T11:03:04.643Z,44.20
2018-04-15T11:05:32.159Z,44.20
2018-04-15T11:07:59.632Z,44.20
2018-04-15T11:10:27.112Z,44.20
2018-04-15T11:12:54.585Z,44.30
2018-04-15T11:15:22.080Z,44.30
2018-04-15T11:17:49.545Z,44.20
2018-04-15T11:20:17.082Z,44.20
2018-04-15T11:22:45.345Z,44.20
2018-04-15T11:25:15.056Z,44.20
2018-04-15T11:27:42.561Z,44.20
2018-04-15T11:30:10.063Z,44.20
2018-04-15T11:32:38.287Z,44.10
2018-04-15T11:35:05.803Z,44.20
2018-04-15T11:37:33.863Z,44.20
2018-04-15T11:40:01.325Z,44.00
2018-04-15T11:42:30.323Z,44.00
2018-04-15T11:44:57.799Z,44.00
2018-04-15T11:47:26.035Z,44.00
2018-04-15T11:49:53.535Z,43.90
2018-04-15T11:52:21.912Z,44.00
2018-04-15T11:54:50.165Z,44.00
2018-04-15T11:57:18.411Z,44.10
2018-04-15T11:59:46.160Z,44.10
2018-04-15T12:02:13.707Z,44.10
2018-04-15T12:04:41.944Z,44.10
2018-04-15T12:07:10.216Z,44.20
2018-04-15T12:09:37.751Z,44.10
2018-04-15T12:12:05.223Z,44.10
2018-04-15T12:14:32.704Z,44.10
2018-04-15T12:17:00.963Z,44.20
2018-04-15T12:19:29.929Z,44.10
2018-04-15T12:21:57.416Z,44.10
2018-04-15T12:24:26.387Z,44.20
2018-04-15T12:26:53.864Z,44.20
2018-04-15T12:29:21.393Z,44.20
2018-04-15T12:31:48.871Z,44.90
2018-04-15T12:34:16.377Z,44.20
2018-04-15T12:36:44.128Z,44.30
2018-04-15T12:39:12.492Z,44.30
2018-04-15T12:41:40.736Z,44.60
2018-04-15T12:44:08.710Z,44.30
2018-04-15T12:46:37.116Z,44.30
2018-04-15T12:49:06.086Z,44.30
2018-04-15T12:51:33.577Z,44.20
2018-04-15T12:54:01.863Z,44.10
2018-04-15T12:56:29.411Z,44.10
2018-04-15T12:58:57.681Z,44.10
2018-04-15T13:01:25.920Z,44.10
2018-04-15T13:03:53.414Z,44.10
2018-04-15T13:06:21.687Z,44.10
2018-04-15T13:08:49.175Z,44.10
2018-04-15T13:11:16.641Z,44.10
2018-04-15T13:13:44.109Z,44.10
2018-04-15T13:16:11.612Z,44.10
2018-04-15T13:18:39.078Z,44.10
2018-04-15T13:21:07.992Z,44.10
2018-04-15T13:23:35.476Z,44.10
2018-04-15T13:26:02.980Z,44.00
2018-04-15T13:28:31.214Z,44.10
2018-04-15T13:30:58.695Z,44.10
2018-04-15T13:33:26.960Z,44.10
2018-04-15T13:35:54.947Z,44.10
2018-04-15T13:38:23.932Z,44.10
2018-04-15T13:40:52.175Z,44.10
2018-04-15T13:43:19.670Z,44.10
2018-04-15T13:45:47.907Z,44.00
2018-04-15T13:48:15.388Z,44.10
2018-04-15T13:50:42.892Z,44.00
2018-04-15T13:53:11.113Z,43.90
2018-04-15T13:55:39.186Z,43.90
2018-04-15T13:58:07.347Z,43.90
2018-04-15T14:00:34.896Z,43.90
2018-04-15T14:03:02.377Z,43.90
2018-04-15T14:05:30.601Z,43.90
2018-04-15T14:07:58.877Z,43.80
2018-04-15T14:10:27.153Z,43.80
2018-04-15T14:12:54.604Z,43.70
2018-04-15T14:15:22.685Z,43.80
2018-04-15T14:17:50.169Z,43.70
2018-04-15T14:20:17.658Z,43.70
2018-04-15T14:22:46.779Z,43.70
2018-04-15T14:25:15.721Z,43.70
2018-04-15T14:27:43.189Z,43.70
2018-04-15T14:30:10.662Z,43.70
2018-04-15T14:32:39.678Z,43.60
2018-04-15T14:35:07.907Z,43.60
2018-04-15T14:37:35.400Z,43.70
2018-04-15T14:40:02.871Z,43.60
2018-04-15T14:42:31.896Z,43.80
2018-04-15T14:44:59.399Z,43.70
2018-04-15T14:47:27.624Z,43.80
2018-04-15T14:49:55.154Z,43.90
2018-04-15T14:52:22.681Z,43.90
2018-04-15T14:54:50.176Z,43.90
2018-04-15T14:57:18.452Z,43.90
2018-04-15T14:59:47.285Z,44.00
2018-04-15T15:02:14.765Z,44.00
2018-04-15T15:04:43.021Z,44.00
2018-04-15T15:07:10.519Z,44.00
2018-04-15T15:09:38.762Z,44.20
2018-04-15T15:12:06.251Z,44.20
2018-04-15T15:14:35.217Z,44.40
2018-04-15T15:17:02.721Z,44.20
2018-04-15T15:19:31.063Z,44.40
2018-04-15T15:21:59.240Z,44.50
2018-04-15T15:24:27.475Z,44.50
2018-04-15T15:26:54.970Z,44.50
2018-04-15T15:29:23.958Z,44.50
2018-04-15T15:31:52.966Z,44.60
2018-04-15T15:34:21.795Z,44.70
2018-04-15T15:36:49.263Z,44.70
2018-04-15T15:39:16.730Z,44.70
2018-04-15T15:41:44.214Z,44.70
2018-04-15T15:44:13.410Z,44.80
2018-04-15T15:46:41.791Z,44.80
2018-04-15T15:49:09.300Z,44.80
2018-04-15T15:51:36.783Z,44.80
2018-04-15T15:54:04.247Z,44.90
2018-04-15T15:56:32.240Z,44.90
2018-04-15T15:58:59.728Z,45.00
2018-04-15T16:01:27.374Z,45.40
2018-04-15T16:03:55.593Z,45.10
2018-04-15T16:06:23.113Z,45.10
2018-04-15T16:08:51.368Z,45.20
2018-04-15T16:11:19.655Z,45.20
2018-04-15T16:13:47.904Z,45.20
2018-04-15T16:16:15.386Z,45.10
2018-04-15T16:18:42.865Z,45.20
2018-04-15T16:21:10.327Z,45.20
2018-04-15T16:23:37.838Z,45.20
2018-04-15T16:26:06.113Z,45.30
2018-04-15T16:28:34.385Z,45.20
2018-04-15T16:31:01.901Z,45.20
2018-04-15T16:33:29.383Z,45.20
2018-04-15T16:35:56.873Z,45.10
2018-04-15T16:38:25.132Z,45.10
2018-04-15T16:40:52.634Z,45.10
2018-04-15T16:43:20.899Z,45.10
2018-04-15T16:45:49.138Z,45.10
2018-04-15T16:48:16.608Z,45.00
2018-04-15T16:50:45.489Z,45.10
2018-04-15T16:53:12.961Z,45.00
2018-04-15T16:55:41.250Z,45.10
2018-04-15T16:58:10.279Z,45.80
2018-04-15T17:00:37.783Z,45.00
2018-04-15T17:03:05.266Z,45.00
2018-04-15T17:05:33.515Z,45.10
2018-04-15T17:08:00.994Z,45.00
2018-04-15T17:10:29.316Z,45.10
2018-04-15T17:12:56.875Z,45.10
2018-04-15T17:15:24.352Z,45.10
2018-04-15T17:17:52.627Z,45.20
2018-04-15T17:20:20.098Z,45.30
2018-04-15T17:22:49.128Z,45.30
2018-04-15T17:25:17.435Z,45.30
2018-04-15T17:27:44.905Z,45.20
2018-04-15T17:30:12.389Z,45.30
2018-04-15T17:32:39.865Z,45.30
2018-04-15T17:35:08.129Z,45.50
2018-04-15T17:37:37.139Z,45.40
2018-04-15T17:40:05.371Z,45.40
2018-04-15T17:42:32.863Z,45.40
2018-04-15T17:45:01.117Z,45.50
2018-04-15T17:47:28.635Z,45.50
2018-04-15T17:49:56.131Z,45.60
2018-04-15T17:52:25.134Z,45.60
2018-04-15T17:54:53.390Z,45.60
2018-04-15T17:57:20.882Z,45.60
2018-04-15T17:59:49.122Z,45.70
2018-04-15T18:02:16.628Z,45.70
2018-04-15T18:04:44.864Z,45.70
2018-04-15T18:07:12.512Z,45.70
2018-04-15T18:09:40.557Z,45.80
2018-04-15T18:12:08.026Z,45.80
2018-04-15T18:14:35.534Z,45.90
2018-04-15T18:17:03.768Z,46.10
2018-04-15T18:19:31.248Z,46.00
2018-04-15T18:21:59.513Z,46.00
2018-04-15T18:24:27.009Z,46.00
2018-04-15T18:26:55.279Z,46.00
2018-04-15T18:29:24.122Z,46.10
2018-04-15T18:31:52.315Z,46.00
2018-04-15T18:34:19.806Z,46.10
2018-04-15T18:36:48.107Z,46.20
2018-04-15T18:39:15.645Z,46.10
2018-04-15T18:41:43.310Z,46.20
2018-04-15T18:44:10.981Z,46.20
2018-04-15T18:46:38.466Z,46.20
2018-04-15T18:49:05.972Z,46.20
2018-04-15T18:51:34.226Z,46.30
2018-04-15T18:54:01.701Z,46.30
2018-04-15T18:56:29.962Z,46.40
2018-04-15T18:58:58.221Z,46.40
2018-04-15T19:01:25.708Z,46.40
2018-04-15T19:03:53.957Z,46.50
2018-04-15T19:06:21.425Z,46.30
2018-04-15T19:08:48.987Z,46.30
2018-04-15T19:11:16.459Z,46.40
2018-04-15T19:13:45.464Z,46.50
2018-04-15T19:16:13.704Z,46.50
2018-04-15T19:18:41.191Z,46.40
2018-04-15T19:21:09.462Z,46.50
2018-04-15T19:23:36.935Z,46.50
2018-04-15T19:26:05.215Z,46.60
2018-04-15T19:28:33.465Z,46.60
2018-04-15T19:31:02.231Z,46.50
2018-04-15T19:33:29.713Z,46.50
2018-04-15T19:35:57.223Z,46.60
2018-04-15T19:38:24.712Z,45.90
2018-04-15T19:40:53.054Z,46.50
2018-04-15T19:43:20.729Z,46.60
2018-04-15T19:45:48.654Z,46.60
2018-04-15T19:48:16.955Z,46.60
2018-04-15T19:50:44.526Z,46.60
2018-04-15T19:53:12.937Z,46.70
2018-04-15T19:55:40.573Z,46.70
2018-04-15T19:58:08.198Z,46.70
2018-04-15T20:00:36.434Z,46.70
2018-04-15T20:03:04.684Z,46.70
2018-04-15T20:05:32.176Z,46.70
2018-04-15T20:07:59.657Z,46.70
2018-04-15T20:10:27.889Z,46.70
2018-04-15T20:12:55.429Z,46.70
2018-04-15T20:15:22.945Z,46.70
2018-04-15T20:17:51.188Z,46.80
2018-04-15T20:20:18.690Z,46.70
2018-04-15T20:22:46.162Z,46.80
2018-04-15T20:25:13.650Z,46.80
2018-04-15T20:27:41.169Z,46.80
2018-04-15T20:30:08.661Z,46.80
2018-04-15T20:32:36.206Z,46.80
2018-04-15T20:35:03.851Z,46.80
2018-04-15T20:37:31.355Z,46.80
2018-04-15T20:39:59.531Z,46.90
2018-04-15T20:42:27.883Z,46.90
2018-04-15T20:44:55.393Z,46.90
2018-04-15T20:47:23.847Z,46.90
2018-04-15T20:49:51.407Z,46.80
2018-04-15T20:52:19.665Z,46.90
2018-04-15T20:54:47.166Z,46.90
2018-04-15T20:57:15.433Z,46.90
2018-04-15T20:59:43.660Z,47.60
2018-04-15T21:02:11.161Z,46.90
2018-04-15T21:04:38.708Z,46.90
2018-04-15T21:07:07.251Z,47.10
2018-04-15T21:09:34.780Z,46.90
2018-04-15T21:12:03.040Z,46.90
2018-04-15T21:14:30.511Z,46.90
2018-04-15T21:16:58.751Z,46.90
2018-04-15T21:19:26.236Z,46.90
2018-04-15T21:21:54.518Z,47.00
2018-04-15T21:24:22.797Z,46.90
2018-04-15T21:26:51.076Z,47.00
2018-04-15T21:29:18.519Z,47.00
2018-04-15T21:31:46.764Z,47.00
2018-04-15T21:34:14.276Z,46.90
2018-04-15T21:36:41.757Z,47.00
2018-04-15T21:39:09.262Z,47.00
2018-04-15T21:41:37.529Z,46.60
2018-04-15T21:44:06.537Z,47.10
2018-04-15T21:46:34.774Z,47.10
2018-04-15T21:49:02.286Z,47.00
2018-04-15T21:51:29.734Z,47.00
2018-04-15T21:53:57.964Z,47.00
2018-04-15T21:56:25.432Z,47.00
2018-04-15T21:58:52.917Z,47.00
2018-04-15T22:01:21.157Z,47.10
2018-04-15T22:03:48.661Z,47.10
2018-04-15T22:06:16.173Z,47.10
2018-04-15T22:08:43.663Z,47.10
2018-04-15T22:11:11.912Z,47.10
2018-04-15T22:13:39.377Z,47.10
2018-04-15T22:16:08.357Z,47.10
2018-04-15T22:18:36.443Z,47.10
2018-04-15T22:21:04.719Z,47.10
2018-04-15T22:23:32.176Z,47.20
2018-04-15T22:26:01.377Z,47.20
2018-04-15T22:28:28.867Z,47.20
2018-04-15T22:30:57.944Z,47.20
2018-04-15T22:33:26.199Z,47.20
2018-04-15T22:35:54.122Z,47.20
2018-04-15T22:38:21.620Z,47.20
2018-04-15T22:40:49.246Z,47.20
2018-04-15T22:43:16.748Z,47.20
2018-04-15T22:45:44.968Z,47.20
2018-04-15T22:48:13.328Z,47.30
2018-04-15T22:50:40.813Z,47.20
2018-04-15T22:53:08.295Z,47.20
2018-04-15T22:55:35.767Z,47.30
2018-04-15T22:58:03.253Z,47.30
2018-04-15T23:00:31.505Z,47.30
2018-04-15T23:02:59.882Z,47.20
2018-04-15T23:05:28.862Z,47.30
2018-04-15T23:07:56.339Z,47.30
2018-04-15T23:10:25.315Z,47.30
2018-04-15T23:12:52.805Z,47.20
2018-04-15T23:15:21.046Z,47.30
2018-04-15T23:17:48.522Z,47.30
2018-04-15T23:20:16.016Z,47.30
2018-04-15T23:22:44.000Z,47.30
2018-04-15T23:25:11.553Z,47.30
2018-04-15T23:27:39.046Z,47.30
2018-04-15T23:30:06.520Z,47.30
2018-04-15T23:32:34.763Z,47.40
2018-04-15T23:35:02.245Z,47.40
2018-04-15T23:37:29.777Z,47.40
2018-04-15T23:39:57.341Z,47.40
2018-04-15T23:42:24.818Z,47.40
2018-04-15T23:44:52.495Z,47.40
2018-04-15T23:47:19.974Z,47.40
2018-04-15T23:49:47.477Z,47.50
2018-04-15T23:52:15.137Z,47.50
2018-04-15T23:54:42.638Z,47.50
2018-04-15T23:57:10.888Z,47.50
2018-04-15T23:59:38.384Z,47.50
